Time;durP1;ratioP1;P1;durP2;ratioP2;P2;SDS_P1;SDS_P2;PMS_P1;PMS_P2;Temp;Humidity;BMP_temperature;BMP_pressure;BME280_temperature;BME280_humidity;BME280_pressure;Samples;Min_cycle;Max_cycle;Signal;HPM_P1;HPM_P2
2023/01/27 00:00:16;;;;;;;8.65;5.05;;;8.20;83.50;;;;;;6317630;22;20430;-82
2023/01/27 00:02:43;;;;;;;8.95;5.03;;;8.20;83.60;;;;;;6291440;22;20011;-83
2023/01/27 00:05:10;;;;;;;8.75;5.13;;;8.20;83.60;;;;;;6290986;22;20003;-84
2023/01/27 00:07:36;;;;;;;9.27;5.45;;;8.20;83.60;;;;;;6287504;22;20000;-81
2023/01/27 00:10:03;;;;;;;9.50;5.30;;;8.20;83.60;;;;;;6296324;22;20003;-84
2023/01/27 00:15:14;;;;;;;10.18;5.35;;;8.20;83.60;;;;;;6319065;22;20041;-81
2023/01/27 00:17:40;;;;;;;9.32;5.00;;;8.20;83.60;;;;;;6289313;22;20023;-82
2023/01/27 00:20:06;;;;;;;8.32;4.70;;;8.20;83.60;;;;;;6287963;22;20014;-81
2023/01/27 00:25:16;;;;;;;8.68;4.82;;;8.20;83.60;;;;;;6314165;22;20482;-81
2023/01/27 00:27:42;;;;;;;8.38;4.70;;;8.20;83.70;;;;;;6291664;22;19999;-81
2023/01/27 00:30:09;;;;;;;9.25;5.15;;;8.20;83.60;;;;;;6291658;22;20025;-81
2023/01/27 00:35:18;;;;;;;8.70;4.57;;;8.20;83.70;;;;;;6317565;22;20078;-82
2023/01/27 00:37:45;;;;;;;8.65;5.30;;;8.20;83.70;;;;;;6287164;22;20063;-82
2023/01/27 00:40:12;;;;;;;8.77;4.95;;;8.20;83.70;;;;;;6286538;22;20081;-81
2023/01/27 00:42:38;;;;;;;9.52;5.55;;;8.20;83.60;;;;;;6314026;22;19999;-80
2023/01/27 00:47:48;;;;;;;9.60;5.25;;;8.20;83.60;;;;;;6315266;22;20584;-82
2023/01/27 00:50:15;;;;;;;7.93;4.65;;;8.20;83.60;;;;;;6290208;22;19999;-81
2023/01/27 00:52:41;;;;;;;9.20;5.10;;;8.20;83.60;;;;;;6286675;22;19999;-81
2023/01/27 00:55:09;;;;;;;9.40;5.50;;;8.20;83.60;;;;;;6285009;22;20010;-81
2023/01/27 00:57:35;;;;;;;8.07;4.85;;;8.00;83.50;;;;;;6287422;22;20357;-83
2023/01/27 01:00:01;;;;;;;8.60;5.00;;;8.20;83.60;;;;;;6296889;22;20010;-81
2023/01/27 01:02:26;;;;;;;8.85;5.05;;;8.20;83.60;;;;;;6294882;22;20011;-83
2023/01/27 01:04:52;;;;;;;9.40;5.55;;;8.20;83.60;;;;;;6292042;22;20003;-81
2023/01/27 01:07:17;;;;;;;9.00;5.30;;;8.20;83.60;;;;;;6287236;22;20017;-82
2023/01/27 01:09:43;;;;;;;9.90;5.25;;;8.20;83.60;;;;;;6284807;22;20089;-81
2023/01/27 01:12:08;;;;;;;8.82;4.97;;;8.20;83.60;;;;;;6285564;22;20017;-82
2023/01/27 01:14:34;;;;;;;8.88;5.20;;;8.20;83.60;;;;;;6286628;22;19995;-83
2023/01/27 01:16:59;;;;;;;9.32;5.13;;;8.20;84.20;;;;;;6291683;22;20350;-83
2023/01/27 01:19:25;;;;;;;9.15;5.47;;;8.20;83.60;;;;;;6296734;22;20007;-82
2023/01/27 01:21:50;;;;;;;9.30;5.20;;;8.20;83.70;;;;;;6298122;22;20007;-82
2023/01/27 01:24:16;;;;;;;8.40;5.00;;;8.20;83.70;;;;;;6297610;22;20003;-81
2023/01/27 01:26:42;;;;;;;8.40;5.10;;;8.20;83.70;;;;;;6295848;22;20013;-82
2023/01/27 01:29:07;;;;;;;7.95;4.75;;;8.20;83.70;;;;;;6295191;22;20003;-82
2023/01/27 01:31:33;;;;;;;8.63;5.45;;;8.20;83.70;;;;;;6293758;22;20079;-81
2023/01/27 01:33:58;;;;;;;9.02;4.95;;;8.20;83.60;;;;;;6322047;22;20449;-81
2023/01/27 01:36:24;;;;;;;8.80;4.88;;;8.20;83.60;;;;;;6294425;22;20063;-83
2023/01/27 01:38:55;;;;;;;8.80;4.60;;;8.20;83.60;;;;;;6321962;22;20341;-82
2023/01/27 01:41:21;;;;;;;9.57;5.03;;;8.20;83.70;;;;;;6293781;22;20322;-82
2023/01/27 01:43:48;;;;;;;9.25;5.10;;;8.20;83.60;;;;;;6297914;22;20029;-83
2023/01/27 01:46:13;;;;;;;9.25;5.05;;;8.10;83.60;;;;;;6293122;22;20007;-81
2023/01/27 01:48:53;;;;;;;8.68;4.75;;;8.20;83.60;;;;;;6318910;22;20000;-81
2023/01/27 01:51:32;;;;;;;9.15;5.20;;;8.20;83.70;;;;;;6318277;22;19999;-81
2023/01/27 01:54:13;;;;;;;8.88;4.93;;;8.20;83.60;;;;;;6290220;22;20004;-81
2023/01/27 01:56:45;;;;;;;8.30;4.80;;;8.20;83.60;;;;;;6289330;22;20007;-82
2023/01/27 01:59:18;;;;;;;8.82;4.90;;;8.20;83.60;;;;;;6289678;22;20029;-81
2023/01/27 02:01:44;;;;;;;9.30;5.43;;;8.20;83.60;;;;;;6288904;22;20082;-82
2023/01/27 02:04:16;;;;;;;9.18;5.07;;;8.20;83.70;;;;;;6319993;22;20011;-81
2023/01/27 02:06:51;;;;;;;8.50;5.20;;;8.20;84.20;;;;;;6310123;22;19999;-78
2023/01/27 02:09:19;;;;;;;8.50;4.97;;;8.20;83.70;;;;;;6297369;22;19999;-82
2023/01/27 02:11:44;;;;;;;8.13;4.60;;;8.20;83.60;;;;;;6325652;22;20005;-82
2023/01/27 02:14:12;;;;;;;7.97;4.97;;;8.20;83.60;;;;;;6296356;22;19999;-82
2023/01/27 02:16:38;;;;;;;9.65;4.88;;;8.20;83.60;;;;;;6294853;22;20049;-82
2023/01/27 02:19:05;;;;;;;9.00;5.45;;;8.20;83.70;;;;;;6295820;22;20007;-82
2023/01/27 02:21:31;;;;;;;9.02;5.00;;;8.20;83.70;;;;;;6295557;22;20010;-82
2023/01/27 02:24:05;;;;;;;8.45;5.00;;;8.20;83.70;;;;;;6295405;22;20421;-82
2023/01/27 02:26:41;;;;;;;8.77;5.40;;;8.20;83.70;;;;;;6294006;22;20007;-82
2023/01/27 02:29:09;;;;;;;8.43;4.95;;;8.20;83.70;;;;;;6293775;22;20379;-82
2023/01/27 02:31:35;;;;;;;8.48;5.20;;;8.20;83.70;;;;;;6294922;22;20004;-82
2023/01/27 02:34:08;;;;;;;8.30;5.00;;;8.20;83.70;;;;;;6323143;22;20003;-81
2023/01/27 02:36:38;;;;;;;9.30;5.30;;;8.20;83.70;;;;;;6321559;22;20003;-82
2023/01/27 02:39:06;;;;;;;8.32;4.60;;;8.20;83.70;;;;;;6294707;22;20056;-83
2023/01/27 02:42:03;;;;;;;9.25;5.07;;;8.20;83.70;;;;;;6293161;22;20004;-82
2023/01/27 02:44:28;;;;;;;9.55;5.35;;;8.20;83.70;;;;;;6268443;22;20019;-82
2023/01/27 02:46:54;;;;;;;8.85;5.40;;;8.20;83.70;;;;;;6322453;22;20008;-81
2023/01/27 02:49:19;;;;;;;8.05;4.90;;;8.20;83.70;;;;;;6321112;22;20006;-81
2023/01/27 02:51:45;;;;;;;9.32;5.75;;;8.20;83.70;;;;;;6291891;22;20067;-82
2023/01/27 02:54:10;;;;;;;8.32;5.18;;;8.20;84.20;;;;;;6291739;22;19999;-81
2023/01/27 02:56:35;;;;;;;8.43;4.70;;;8.20;83.90;;;;;;6297434;22;19999;-82
2023/01/27 02:59:01;;;;;;;9.07;5.10;;;8.20;83.70;;;;;;6293748;22;20452;-81
2023/01/27 03:01:26;;;;;;;8.50;4.82;;;8.20;83.70;;;;;;6318074;22;20006;-82
2023/01/27 03:03:52;;;;;;;8.65;4.85;;;8.20;83.70;;;;;;6291475;22;20011;-81
2023/01/27 03:06:18;;;;;;;9.32;5.05;;;8.20;83.70;;;;;;6293728;22;20030;-83
2023/01/27 03:08:44;;;;;;;8.63;5.10;;;8.20;83.70;;;;;;6292679;22;20086;-83
2023/01/27 03:11:10;;;;;;;8.82;5.10;;;8.20;83.70;;;;;;6289537;22;20334;-82
2023/01/27 03:13:36;;;;;;;8.70;5.13;;;8.10;83.60;;;;;;6291252;22;20010;-81
2023/01/27 03:18:48;;;;;;;8.30;4.70;;;8.20;83.60;;;;;;6317813;22;20482;-80
2023/01/27 03:21:15;;;;;;;8.07;4.63;;;8.20;83.60;;;;;;6287914;22;20037;-81
2023/01/27 03:23:41;;;;;;;8.43;4.82;;;8.20;83.60;;;;;;6317665;22;20010;-80
2023/01/27 03:26:08;;;;;;;8.02;4.80;;;8.20;83.60;;;;;;6290486;22;20031;-81
2023/01/27 03:28:34;;;;;;;7.45;4.47;;;8.20;83.60;;;;;;6293026;22;20049;-81
2023/01/27 03:31:01;;;;;;;8.00;4.85;;;8.20;83.60;;;;;;6291648;22;20007;-81
2023/01/27 03:33:27;;;;;;;8.77;5.28;;;8.20;83.60;;;;;;6289148;22;20004;-80
2023/01/27 03:46:49;;;;;;;8.40;4.90;;;8.20;83.50;;;;;;6315117;22;20031;-82
2023/01/27 03:49:15;;;;;;;8.43;5.03;;;8.20;83.50;;;;;;6317430;22;20003;-81
2023/01/27 03:51:40;;;;;;;8.23;4.78;;;8.20;83.50;;;;;;6316956;22;20026;-81
2023/01/27 03:54:05;;;;;;;7.80;4.57;;;8.20;83.50;;;;;;6316170;22;20080;-81
2023/01/27 03:56:31;;;;;;;8.05;5.15;;;8.20;83.50;;;;;;6313683;22;19999;-80
2023/01/27 03:58:56;;;;;;;9.05;4.72;;;8.20;83.60;;;;;;6313816;22;20006;-81
2023/01/27 04:01:23;;;;;;;8.55;4.82;;;8.20;83.60;;;;;;6314648;22;20643;-80
2023/01/27 04:09:37;;;;;;;8.20;5.10;;;8.20;83.60;;;;;;6192636;23;19997;-81
2023/01/27 04:12:04;;;;;;;8.38;4.88;;;8.20;83.60;;;;;;6293156;22;20469;-81
2023/01/27 04:14:40;;;;;;;7.18;4.15;;;8.20;83.60;;;;;;6317150;22;19999;-80
2023/01/27 04:17:10;;;;;;;7.88;4.38;;;8.20;83.60;;;;;;6287387;22;20064;-80
2023/01/27 04:19:36;;;;;;;6.80;4.30;;;8.20;83.60;;;;;;6286536;22;20014;-81
2023/01/27 04:22:02;;;;;;;7.35;4.50;;;8.20;83.60;;;;;;6286268;22;20023;-80
2023/01/27 04:24:27;;;;;;;7.47;4.65;;;8.20;83.60;;;;;;6287396;22;20007;-81
2023/01/27 04:27:02;;;;;;;7.20;4.28;;;8.20;83.60;;;;;;6287092;22;20031;-81
2023/01/27 04:29:30;;;;;;;7.78;4.60;;;8.20;83.60;;;;;;6319569;22;20080;-83
2023/01/27 04:31:56;;;;;;;7.82;4.32;;;8.20;83.60;;;;;;6316924;22;20015;-82
2023/01/27 04:34:23;;;;;;;7.38;4.53;;;8.20;83.60;;;;;;6289395;22;20004;-81
2023/01/27 04:36:49;;;;;;;7.63;4.40;;;8.20;83.60;;;;;;6286385;22;20033;-81
2023/01/27 04:39:15;;;;;;;8.40;5.30;;;8.20;83.60;;;;;;6286231;22;20023;-81
2023/01/27 04:41:42;;;;;;;7.50;4.28;;;8.20;83.60;;;;;;6285791;22;20491;-81
2023/01/27 04:44:09;;;;;;;7.78;4.63;;;8.20;83.60;;;;;;6312164;22;20007;-80
2023/01/27 04:46:34;;;;;;;7.13;4.43;;;8.20;83.60;;;;;;6280535;22;20010;-79
2023/01/27 04:49:00;;;;;;;8.55;4.95;;;8.20;83.70;;;;;;6304119;22;19995;-80
2023/01/27 04:51:26;;;;;;;7.72;4.53;;;8.20;83.60;;;;;;6273224;22;20012;-79
2023/01/27 04:53:53;;;;;;;7.43;4.32;;;8.20;83.60;;;;;;6305543;22;20026;-78
2023/01/27 04:56:28;;;;;;;7.68;4.65;;;8.20;83.70;;;;;;6276148;22;20072;-79
2023/01/27 04:58:57;;;;;;;7.50;4.60;;;8.20;83.60;;;;;;6275687;22;20416;-79
2023/01/27 05:01:22;;;;;;;7.22;4.40;;;8.20;83.60;;;;;;6276411;22;20390;-78
2023/01/27 05:03:48;;;;;;;6.97;4.10;;;8.20;83.60;;;;;;6303645;22;20007;-79
2023/01/27 05:06:13;;;;;;;6.60;3.80;;;8.20;83.60;;;;;;6303080;22;20042;-79
2023/01/27 05:08:39;;;;;;;7.93;4.50;;;8.20;83.60;;;;;;6305280;22;20532;-77
2023/01/27 05:11:05;;;;;;;6.95;4.00;;;8.20;83.60;;;;;;6302208;22;20337;-78
2023/01/27 05:13:30;;;;;;;7.97;3.97;;;8.20;83.70;;;;;;6302380;22;20003;-79
2023/01/27 05:16:08;;;;;;;6.47;4.03;;;8.20;83.60;;;;;;6273970;22;20015;-79
2023/01/27 05:18:34;;;;;;;6.88;4.10;;;8.20;83.70;;;;;;6302867;22;20015;-77
2023/01/27 05:21:00;;;;;;;6.43;3.80;;;8.20;83.70;;;;;;6310617;22;20403;-80
2023/01/27 05:23:36;;;;;;;7.15;4.20;;;8.10;83.60;;;;;;6303118;22;20456;-79
2023/01/27 05:26:05;;;;;;;6.80;3.85;;;8.20;83.70;;;;;;6302002;22;20461;-77
2023/01/27 05:28:31;;;;;;;7.30;4.20;;;8.20;83.70;;;;;;6304927;22;20011;-79
2023/01/27 05:31:02;;;;;;;6.85;4.22;;;8.20;83.70;;;;;;6273571;22;19999;-80
2023/01/27 05:33:27;;;;;;;6.75;4.25;;;8.20;83.70;;;;;;6283080;22;20004;-80
2023/01/27 05:35:52;;;;;;;6.63;3.83;;;8.10;83.60;;;;;;6283178;22;20055;-80
2023/01/27 05:38:18;;;;;;;6.20;3.90;;;8.20;83.70;;;;;;6280025;22;20089;-79
2023/01/27 05:40:43;;;;;;;6.20;3.67;;;8.20;83.70;;;;;;6280537;22;20409;-81
2023/01/27 05:43:09;;;;;;;6.50;3.80;;;8.20;83.70;;;;;;6282217;22;20015;-80
2023/01/27 05:45:34;;;;;;;7.20;3.75;;;8.00;83.60;;;;;;6281384;22;20434;-80
2023/01/27 05:48:00;;;;;;;7.05;4.03;;;8.10;83.60;;;;;;6280503;22;20003;-80
2023/01/27 05:50:25;;;;;;;7.28;4.22;;;8.20;83.70;;;;;;6280870;22;20086;-80
2023/01/27 05:52:51;;;;;;;7.10;4.07;;;8.20;83.60;;;;;;6279179;22;20058;-80
2023/01/27 05:55:16;;;;;;;6.38;3.95;;;8.20;83.70;;;;;;6307031;22;20089;-80
2023/01/27 05:57:42;;;;;;;6.18;3.75;;;8.20;83.70;;;;;;6275625;22;20007;-77
2023/01/27 06:00:08;;;;;;;5.88;3.58;;;8.20;83.70;;;;;;6275934;22;20011;-77
2023/01/27 06:02:33;;;;;;;6.90;4.00;;;8.20;83.70;;;;;;6275061;22;20445;-79
2023/01/27 06:04:59;;;;;;;6.57;3.95;;;8.20;83.70;;;;;;6302281;22;20007;-77
2023/01/27 06:07:24;;;;;;;6.90;3.80;;;8.10;83.60;;;;;;6278339;22;20018;-79
2023/01/27 06:09:49;;;;;;;7.20;4.15;;;8.20;83.70;;;;;;6278777;22;20022;-77
2023/01/27 06:12:15;;;;;;;6.07;3.60;;;8.20;83.70;;;;;;6277539;22;20007;-80
2023/01/27 06:14:41;;;;;;;6.70;3.70;;;8.20;83.70;;;;;;6277475;22;20003;-79
2023/01/27 06:17:06;;;;;;;6.10;3.35;;;8.20;83.70;;;;;;6275177;22;20106;-79
2023/01/27 06:19:32;;;;;;;6.47;3.78;;;8.20;83.70;;;;;;6278632;22;20090;-80
2023/01/27 06:21:57;;;;;;;6.63;3.67;;;8.10;83.60;;;;;;6307193;22;20007;-77
2023/01/27 06:24:23;;;;;;;6.53;3.67;;;8.20;83.70;;;;;;6277503;22;20030;-77
2023/01/27 06:26:48;;;;;;;6.32;3.72;;;8.10;83.60;;;;;;6276403;22;20004;-79
2023/01/27 06:29:14;;;;;;;6.55;3.80;;;8.20;83.70;;;;;;6303628;22;20003;-77
2023/01/27 06:31:39;;;;;;;6.63;3.50;;;8.20;83.80;;;;;;6274771;22;20079;-80
2023/01/27 06:34:05;;;;;;;6.28;3.72;;;8.20;83.70;;;;;;6314523;22;20007;-79
2023/01/27 06:36:30;;;;;;;5.35;3.22;;;8.10;83.60;;;;;;6276242;22;20034;-78
2023/01/27 06:38:56;;;;;;;5.55;3.17;;;8.20;83.70;;;;;;6280604;22;20003;-78
2023/01/27 06:41:21;;;;;;;6.40;3.90;;;8.20;83.70;;;;;;6282965;22;20040;-79
2023/01/27 06:43:47;;;;;;;5.43;3.13;;;8.20;83.70;;;;;;6286157;22;20003;-79
2023/01/27 06:46:13;;;;;;;6.43;3.58;;;8.20;83.80;;;;;;6286897;22;19999;-80
2023/01/27 06:48:39;;;;;;;5.63;3.40;;;8.10;83.80;;;;;;6315926;22;19995;-81
2023/01/27 06:51:05;;;;;;;6.05;3.50;;;8.20;83.80;;;;;;6284439;22;20015;-80
2023/01/27 06:53:31;;;;;;;7.38;3.88;;;8.20;83.80;;;;;;6310340;22;19997;-78
2023/01/27 06:55:58;;;;;;;6.53;3.20;;;8.20;83.80;;;;;;6282596;22;20033;-78
2023/01/27 06:58:24;;;;;;;5.85;3.40;;;8.20;83.80;;;;;;6283664;22;20003;-78
2023/01/27 07:00:50;;;;;;;6.18;3.58;;;8.20;83.80;;;;;;6313292;22;20000;-79
2023/01/27 07:03:16;;;;;;;6.20;3.47;;;8.20;83.80;;;;;;6285124;22;20015;-78
2023/01/27 07:05:42;;;;;;;6.18;3.78;;;8.20;83.80;;;;;;6289450;22;20010;-81
2023/01/27 07:08:07;;;;;;;5.45;3.40;;;8.20;83.80;;;;;;6285769;22;19999;-79
2023/01/27 07:10:33;;;;;;;6.20;3.63;;;8.20;83.90;;;;;;6312162;22;20008;-80
2023/01/27 07:13:11;;;;;;;5.63;3.13;;;8.20;83.80;;;;;;6315847;22;19995;-79
2023/01/27 07:15:37;;;;;;;6.03;3.38;;;8.20;83.90;;;;;;6312211;22;20464;-80
2023/01/27 07:18:03;;;;;;;5.88;3.63;;;8.20;83.80;;;;;;6285076;22;20022;-79
2023/01/27 07:20:29;;;;;;;6.00;3.40;;;8.20;83.90;;;;;;6284481;22;20004;-79
2023/01/27 07:23:00;;;;;;;5.95;3.45;;;8.20;83.80;;;;;;6316316;22;20003;-79
2023/01/27 07:25:26;;;;;;;5.65;3.20;;;8.20;83.90;;;;;;6285913;22;20003;-79
2023/01/27 07:27:52;;;;;;;5.70;3.25;;;8.20;83.80;;;;;;6285154;22;20010;-79
2023/01/27 07:30:18;;;;;;;6.10;3.38;;;8.20;83.90;;;;;;6284418;22;20007;-80
2023/01/27 07:32:43;;;;;;;6.10;3.30;;;8.20;83.90;;;;;;6310939;22;20070;-80
2023/01/27 07:35:09;;;;;;;5.95;3.40;;;8.20;83.90;;;;;;6288392;22;20026;-78
2023/01/27 07:37:34;;;;;;;6.35;3.45;;;8.20;83.90;;;;;;6292493;22;20003;-78
2023/01/27 07:40:00;;;;;;;6.10;3.33;;;8.20;83.90;;;;;;6284966;22;20000;-79
2023/01/27 07:42:25;;;;;;;5.82;3.22;;;8.20;83.90;;;;;;6312270;22;20049;-78
2023/01/27 07:44:51;;;;;;;6.30;3.05;;;8.20;83.90;;;;;;6284843;22;20094;-81
2023/01/27 07:47:16;;;;;;;5.38;3.05;;;8.20;83.90;;;;;;6320567;22;20103;-79
2023/01/27 07:49:42;;;;;;;5.85;3.17;;;8.20;83.90;;;;;;6287853;22;20010;-79
2023/01/27 07:52:07;;;;;;;5.60;3.00;;;8.20;83.90;;;;;;6290838;22;19999;-80
2023/01/27 07:54:33;;;;;;;5.75;3.03;;;8.20;83.90;;;;;;6318110;22;19995;-79
2023/01/27 07:56:59;;;;;;;5.75;3.47;;;8.20;83.90;;;;;;6286334;22;20434;-79
2023/01/27 07:59:25;;;;;;;5.57;3.28;;;8.20;83.90;;;;;;6285697;22;20003;-78
2023/01/27 08:01:50;;;;;;;5.18;2.90;;;8.20;83.90;;;;;;6284055;22;20009;-79
2023/01/27 08:04:16;;;;;;;5.47;3.13;;;8.20;84.40;;;;;;6283759;22;20033;-79
2023/01/27 08:06:41;;;;;;;5.78;3.08;;;8.20;83.90;;;;;;6316487;22;20049;-82
2023/01/27 08:09:07;;;;;;;5.70;3.40;;;8.20;83.90;;;;;;6292599;22;20006;-80
2023/01/27 08:11:33;;;;;;;5.63;3.20;;;8.20;83.90;;;;;;6292931;22;19995;-80
2023/01/27 08:13:58;;;;;;;5.10;3.00;;;8.20;83.90;;;;;;6291654;22;20003;-80
2023/01/27 08:16:23;;;;;;;5.45;3.00;;;8.20;83.90;;;;;;6318299;22;20023;-81
2023/01/27 08:18:51;;;;;;;5.30;2.92;;;8.20;83.90;;;;;;6291854;22;20499;-79
2023/01/27 08:21:17;;;;;;;5.20;2.67;;;8.20;83.90;;;;;;6290642;22;20033;-79
2023/01/27 08:23:42;;;;;;;5.20;3.17;;;8.20;83.90;;;;;;6290079;22;20003;-79
2023/01/27 08:26:08;;;;;;;5.18;3.13;;;8.20;83.90;;;;;;6290249;22;20003;-80
2023/01/27 08:28:35;;;;;;;5.00;2.85;;;8.20;83.90;;;;;;6290699;22;19995;-80
2023/01/27 08:31:07;;;;;;;4.65;2.70;;;8.20;83.90;;;;;;6289721;22;20027;-79
2023/01/27 08:33:32;;;;;;;4.40;2.70;;;8.20;83.90;;;;;;6317254;22;19999;-79
2023/01/27 08:36:10;;;;;;;4.65;2.60;;;8.20;83.90;;;;;;6288463;22;20383;-80
2023/01/27 08:38:37;;;;;;;5.18;3.10;;;8.20;83.90;;;;;;6289740;22;20007;-79
2023/01/27 08:41:08;;;;;;;5.03;2.80;;;8.20;83.90;;;;;;6290908;22;20007;-82
2023/01/27 08:43:34;;;;;;;5.25;3.13;;;8.20;83.90;;;;;;6293217;22;20090;-79
2023/01/27 08:46:00;;;;;;;6.28;3.08;;;8.20;83.90;;;;;;6289686;22;20015;-79
2023/01/27 08:48:27;;;;;;;6.05;3.33;;;8.20;83.90;;;;;;6287761;22;20007;-81
2023/01/27 08:50:54;;;;;;;5.47;3.35;;;8.20;83.90;;;;;;6315588;22;20430;-81
2023/01/27 08:53:20;;;;;;;5.20;2.97;;;8.20;83.90;;;;;;6287751;22;19999;-78
2023/01/27 08:55:46;;;;;;;5.53;3.05;;;8.20;84.00;;;;;;6290074;22;20014;-81
2023/01/27 08:58:11;;;;;;;4.28;2.60;;;8.20;83.90;;;;;;6319584;22;19999;-80
2023/01/27 09:00:37;;;;;;;4.40;2.70;;;8.20;83.90;;;;;;6292763;22;20034;-80
2023/01/27 09:03:02;;;;;;;4.30;2.63;;;8.20;83.90;;;;;;6293221;22;20011;-79
2023/01/27 09:05:28;;;;;;;5.88;3.20;;;8.20;83.90;;;;;;6292032;22;20014;-80
2023/01/27 09:07:53;;;;;;;4.82;2.75;;;8.20;83.90;;;;;;6318846;22;20356;-80
2023/01/27 09:10:19;;;;;;;5.38;3.35;;;8.20;83.90;;;;;;6292235;22;19999;-79
2023/01/27 09:12:45;;;;;;;4.38;2.70;;;8.20;83.90;;;;;;6290722;22;20048;-81
2023/01/27 09:15:12;;;;;;;4.78;2.72;;;8.20;83.90;;;;;;6289957;22;20422;-81
2023/01/27 09:17:37;;;;;;;5.68;3.05;;;8.20;83.90;;;;;;6290881;22;20483;-81
2023/01/27 09:20:03;;;;;;;5.38;3.17;;;8.20;83.90;;;;;;6288816;22;19995;-80
2023/01/27 09:22:29;;;;;;;4.47;2.80;;;8.20;83.90;;;;;;6288398;22;19999;-81
2023/01/27 09:24:54;;;;;;;5.53;2.97;;;8.20;83.90;;;;;;6288433;22;20319;-79
2023/01/27 09:27:20;;;;;;;5.13;2.75;;;8.20;83.90;;;;;;6315773;22;19999;-79
2023/01/27 09:29:45;;;;;;;5.10;3.00;;;8.20;83.90;;;;;;6288443;22;19999;-81
2023/01/27 09:32:11;;;;;;;5.60;2.80;;;8.20;83.90;;;;;;6288466;22;20337;-79
2023/01/27 09:34:37;;;;;;;5.07;2.83;;;8.20;83.80;;;;;;6288318;22;20004;-80
2023/01/27 09:37:09;;;;;;;4.65;2.80;;;8.20;83.90;;;;;;6286822;22;20004;-80
2023/01/27 09:39:41;;;;;;;5.57;2.97;;;8.20;83.90;;;;;;6315426;22;20003;-79
2023/01/27 09:42:25;;;;;;;5.07;3.03;;;8.20;83.90;;;;;;6288168;22;20345;-80
2023/01/27 09:45:18;;;;;;;4.32;2.35;;;8.20;83.90;;;;;;6314504;22;20070;-81
2023/01/27 09:47:58;;;;;;;4.57;2.67;;;8.20;83.90;;;;;;6314319;22;20003;-80
2023/01/27 09:50:44;;;;;;;4.32;2.53;;;8.20;83.90;;;;;;6289173;22;20429;-79
2023/01/27 09:53:47;;;;;;;4.55;2.67;;;8.20;83.90;;;;;;6288540;22;20007;-78
2023/01/27 09:56:31;;;;;;;4.55;2.67;;;8.20;83.90;;;;;;6312662;22;20472;-79
2023/01/27 09:59:31;;;;;;;4.45;2.78;;;8.20;83.90;;;;;;6288877;22;20007;-79
2023/01/27 10:02:10;;;;;;;4.55;2.67;;;8.20;83.90;;;;;;6313979;22;20010;-78
2023/01/27 10:04:55;;;;;;;4.72;2.75;;;8.20;83.90;;;;;;6316254;22;20003;-79
2023/01/27 10:07:46;;;;;;;5.25;3.15;;;8.20;83.90;;;;;;6286441;22;20448;-79
2023/01/27 10:10:27;;;;;;;4.75;2.80;;;8.20;84.00;;;;;;6314969;22;20039;-80
2023/01/27 10:13:20;;;;;;;4.75;2.85;;;8.20;84.00;;;;;;6285560;22;20082;-80
2023/01/27 10:16:00;;;;;;;4.63;2.63;;;8.20;83.90;;;;;;6285540;22;20006;-78
2023/01/27 10:18:50;;;;;;;4.60;2.65;;;8.20;84.00;;;;;;6285717;22;20060;-79
2023/01/27 10:21:25;;;;;;;4.72;2.35;;;8.20;84.00;;;;;;6287524;22;19999;-81
2023/01/27 10:24:23;;;;;;;3.97;2.38;;;8.20;84.00;;;;;;6288971;22;20013;-79
2023/01/27 10:26:53;;;;;;;3.75;2.30;;;8.20;84.00;;;;;;6285640;22;20003;-78
2023/01/27 10:29:31;;;;;;;4.32;2.42;;;8.20;83.90;;;;;;6314464;22;20100;-80
2023/01/27 10:32:02;;;;;;;4.93;2.80;;;8.20;84.00;;;;;;6290784;22;20053;-81
2023/01/27 10:34:31;;;;;;;4.35;2.40;;;8.20;83.90;;;;;;6291539;22;20489;-80
2023/01/27 10:37:14;;;;;;;4.30;2.50;;;8.20;83.90;;;;;;6287399;22;20014;-79
2023/01/27 10:40:05;;;;;;;4.68;2.40;;;8.20;83.90;;;;;;6286444;22;20434;-80
2023/01/27 10:43:12;;;;;;;4.80;2.55;;;8.20;83.90;;;;;;6290694;22;20003;-80
2023/01/27 10:45:53;;;;;;;4.28;2.35;;;8.20;84.00;;;;;;6266857;22;20077;-80
2023/01/27 10:48:32;;;;;;;;;;;8.20;84.00;;;;;;6287074;22;20469;-80
2023/01/27 10:51:00;;;;;;;4.32;2.33;;;8.20;83.90;;;;;;6285692;22;19906;-80
2023/01/27 10:53:47;;;;;;;4.40;2.67;;;8.20;83.90;;;;;;6313733;22;19999;-79
2023/01/27 10:56:37;;;;;;;4.53;2.55;;;8.20;83.90;;;;;;6286699;22;20239;-80
2023/01/27 10:59:33;;;;;;;3.80;2.27;;;8.20;83.90;;;;;;6287150;22;20003;-79
2023/01/27 11:02:08;;;;;;;4.35;2.40;;;8.30;83.90;;;;;;6313516;22;20646;-80
2023/01/27 11:04:45;;;;;;;3.80;2.35;;;8.20;83.90;;;;;;6285185;22;20089;-79
2023/01/27 11:07:22;;;;;;;4.45;2.38;;;8.20;83.80;;;;;;6287953;22;20010;-79
2023/01/27 11:09:54;;;;;;;4.10;2.42;;;8.20;83.90;;;;;;6316576;22;20003;-79
2023/01/27 11:12:31;;;;;;;4.22;2.55;;;8.20;83.90;;;;;;6285589;22;19999;-79
2023/01/27 11:14:58;;;;;;;4.32;2.60;;;8.20;83.80;;;;;;6285436;22;20004;-80
2023/01/27 11:17:29;;;;;;;4.18;2.25;;;8.30;83.90;;;;;;6287358;22;20438;-80
2023/01/27 11:19:57;;;;;;;3.40;2.13;;;8.30;83.90;;;;;;6315637;22;20008;-79
2023/01/27 11:22:32;;;;;;;3.63;2.17;;;8.20;83.80;;;;;;6285879;22;20429;-77
2023/01/27 11:25:25;;;;;;;3.95;2.22;;;8.20;83.80;;;;;;6284887;22;20004;-79
2023/01/27 11:28:16;;;;;;;4.28;2.20;;;8.30;83.90;;;;;;6286206;22;19999;-79
2023/01/27 11:30:44;;;;;;;;;;;8.20;83.80;;;;;;6285580;22;20006;-80
2023/01/27 11:33:36;;;;;;;4.13;2.30;;;8.20;83.80;;;;;;6293137;22;19899;-80
2023/01/27 11:36:01;;;;;;;3.65;2.08;;;8.30;83.90;;;;;;6292915;22;20010;-78
2023/01/27 11:38:26;;;;;;;4.13;2.17;;;8.30;83.90;;;;;;6320054;22;20003;-81
2023/01/27 11:40:53;;;;;;;3.72;2.20;;;8.30;83.90;;;;;;6319726;22;20346;-81
2023/01/27 11:43:27;;;;;;;3.35;2.03;;;8.30;83.90;;;;;;6292802;22;20025;-79
2023/01/27 11:46:00;;;;;;;4.25;2.28;;;8.30;83.90;;;;;;6292871;22;20014;-79
2023/01/27 11:48:39;;;;;;;4.13;2.35;;;8.30;83.90;;;;;;6291807;22;20346;-80
2023/01/27 11:51:20;;;;;;;3.63;2.00;;;8.20;83.80;;;;;;6292318;22;20349;-79
2023/01/27 11:53:50;;;;;;;3.55;2.20;;;8.30;83.90;;;;;;6290121;22;20003;-82
2023/01/27 11:56:18;;;;;;;3.90;2.20;;;8.30;83.80;;;;;;6290367;22;20023;-79
2023/01/27 11:58:53;;;;;;;3.20;2.08;;;8.20;83.80;;;;;;6293746;22;20003;-81
2023/01/27 12:01:23;;;;;;;3.78;2.28;;;8.30;83.90;;;;;;6320110;22;20076;-80
2023/01/27 12:04:08;;;;;;;3.67;2.08;;;8.30;83.90;;;;;;6287400;22;20015;-80
2023/01/27 12:06:52;;;;;;;5.57;2.25;;;8.30;83.90;;;;;;6288813;22;20004;-79
2023/01/27 12:09:39;;;;;;;3.85;2.20;;;8.30;83.90;;;;;;6288429;22;20338;-79
2023/01/27 12:12:13;;;;;;;3.22;1.83;;;8.30;83.90;;;;;;6287654;22;20006;-80
2023/01/27 12:14:46;;;;;;;3.15;1.90;;;8.20;83.90;;;;;;6289611;22;20078;-79
2023/01/27 12:17:19;;;;;;;3.90;2.20;;;8.20;83.90;;;;;;6315614;22;19995;-80
2023/01/27 12:19:46;;;;;;;3.47;1.92;;;8.30;83.90;;;;;;6288161;22;20030;-81
2023/01/27 12:22:29;;;;;;;3.95;2.08;;;8.20;83.90;;;;;;6288772;22;20063;-81
2023/01/27 12:25:03;;;;;;;3.33;1.98;;;8.30;83.90;;;;;;6292556;22;20004;-80
2023/01/27 12:27:34;;;;;;;3.47;2.00;;;8.20;83.90;;;;;;6292647;22;20041;-80
2023/01/27 12:30:04;;;;;;;3.70;2.08;;;8.10;83.90;;;;;;6292638;22;20030;-80
2023/01/27 12:32:41;;;;;;;4.85;2.10;;;8.30;83.90;;;;;;6319920;22;20023;-80
2023/01/27 12:35:22;;;;;;;3.03;1.85;;;8.20;83.90;;;;;;6291315;22;20003;-81
2023/01/27 12:38:00;;;;;;;3.47;1.83;;;8.20;83.90;;;;;;6265861;22;20066;-80
2023/01/27 12:40:29;;;;;;;2.72;1.70;;;8.20;83.90;;;;;;6319740;22;20023;-79
2023/01/27 12:43:01;;;;;;;3.58;2.03;;;8.20;83.90;;;;;;6289893;22;20000;-80
2023/01/27 12:45:33;;;;;;;3.13;1.98;;;8.30;84.00;;;;;;6289563;22;20033;-79
2023/01/27 12:48:08;;;;;;;3.45;1.95;;;8.20;83.90;;;;;;6289535;22;19999;-81
2023/01/27 12:50:36;;;;;;;3.00;1.80;;;8.30;83.90;;;;;;6291546;22;20049;-80
2023/01/27 12:53:17;;;;;;;3.47;1.95;;;8.30;83.90;;;;;;6290913;22;20311;-81
2023/01/27 12:56:08;;;;;;;3.90;2.17;;;8.30;83.90;;;;;;6316193;22;20010;-79
2023/01/27 12:58:37;;;;;;;3.38;1.80;;;8.20;83.90;;;;;;6293303;22;20003;-80
2023/01/27 13:01:04;;;;;;;3.10;1.85;;;8.20;83.90;;;;;;6287905;22;20026;-79
2023/01/27 13:03:35;;;;;;;2.78;1.80;;;8.30;84.00;;;;;;6288218;22;20022;-79
2023/01/27 13:06:01;;;;;;;2.80;1.70;;;8.30;84.00;;;;;;6287676;22;20014;-79
2023/01/27 13:08:32;;;;;;;2.83;1.65;;;8.30;83.90;;;;;;6287023;22;20226;-79
2023/01/27 13:10:59;;;;;;;4.20;1.90;;;8.30;83.90;;;;;;6288040;22;19995;-79
2023/01/27 13:13:27;;;;;;;2.58;1.65;;;8.30;83.90;;;;;;6288222;22;20006;-78
2023/01/27 13:16:24;;;;;;;3.15;1.85;;;8.30;83.90;;;;;;6313825;22;19999;-80
2023/01/27 13:18:55;;;;;;;3.40;2.00;;;8.30;84.00;;;;;;6286466;22;20003;-79
2023/01/27 13:21:25;;;;;;;2.90;1.60;;;8.30;84.00;;;;;;6314416;22;20006;-79
2023/01/27 13:23:52;;;;;;;2.92;1.70;;;8.20;83.90;;;;;;6286774;22;20544;-79
2023/01/27 13:26:25;;;;;;;3.40;1.80;;;8.30;83.90;;;;;;6289583;22;20013;-79
2023/01/27 13:29:10;;;;;;;3.47;1.88;;;8.30;84.00;;;;;;6292413;22;20003;-78
2023/01/27 13:31:44;;;;;;;1.90;1.50;;;8.30;83.90;;;;;;6287947;22;20003;-79
2023/01/27 13:34:16;;;;;;;2.63;1.45;;;8.30;83.90;;;;;;6285434;22;20007;-78
2023/01/27 13:37:15;;;;;;;2.38;1.50;;;8.30;83.90;;;;;;6284513;22;20034;-80
2023/01/27 13:40:01;;;;;;;3.03;1.88;;;8.30;83.90;;;;;;6312743;22;20082;-78
2023/01/27 13:42:52;;;;;;;3.33;1.80;;;8.30;84.00;;;;;;6284604;22;20006;-78